Sargodha Weather



Sargodha's Current Weather

Temprature 24.38o clear sky

clear sky

Rain: 0 %

Min Temprature24.38o
Max Temprature24.38o
Humidity70
Wind Speed3.27 m/h
Sun Rise05:59:42
Sun Set18:01:49
Current Time: 26-Sep-2022 07:43:46
Lat/Lon: 32.0836, 72.6711




Sargodha's Geo Location



Sargodha's Weather Forecast

Time Overall Temp Min Temp Max Temp Humidity Wind Speed Rain
26-Sep-2022 (Mon)
08:00:00 light rain 24.380 24.380 24.380 70 3.27 m/h 56 %
11:00:00 clear sky 26.380 26.380 30.390 63 3.29 m/h 0 %
14:00:00 few clouds 30.470 30.470 33.510 48 2.4 m/h 0 %
17:00:00 clear sky 33.260 33.260 33.260 37 1.36 m/h 0 %
20:00:00 clear sky 29.200 29.200 29.200 48 1.94 m/h 0 %
23:00:00 clear sky 28.040 28.040 28.040 52 1.14 m/h 0 %
27-Sep-2022 (Tue)
02:00:00 clear sky 26.800 26.800 26.800 56 1.57 m/h 0 %
05:00:00 clear sky 25.530 25.530 25.530 61 1.98 m/h 0 %
08:00:00 clear sky 28.380 28.380 28.380 56 2.17 m/h 0 %
11:00:00 clear sky 33.790 33.790 33.790 38 1.89 m/h 0 %
14:00:00 clear sky 36.110 36.110 36.110 30 1.87 m/h 0 %
17:00:00 clear sky 35.320 35.320 35.320 30 2.4 m/h 0 %
20:00:00 clear sky 30.340 30.340 30.340 45 3.11 m/h 0 %
23:00:00 clear sky 28.290 28.290 28.290 53 3 m/h 0 %
28-Sep-2022 (Wed)
02:00:00 clear sky 27.010 27.010 27.010 59 2.77 m/h 0 %
05:00:00 clear sky 25.750 25.750 25.750 64 2.66 m/h 0 %
08:00:00 clear sky 28.430 28.430 28.430 53 3.06 m/h 0 %
11:00:00 clear sky 34.400 34.400 34.400 34 3.46 m/h 0 %
14:00:00 clear sky 37.060 37.060 37.060 26 3.01 m/h 0 %
17:00:00 clear sky 36.020 36.020 36.020 27 2.9 m/h 0 %
20:00:00 clear sky 30.160 30.160 30.160 45 3.35 m/h 0 %
23:00:00 clear sky 28.350 28.350 28.350 54 3.4 m/h 0 %
29-Sep-2022 (Thu)
02:00:00 clear sky 26.920 26.920 26.920 61 2.51 m/h 0 %
05:00:00 clear sky 25.640 25.640 25.640 64 1.99 m/h 0 %
08:00:00 clear sky 28.940 28.940 28.940 47 1.76 m/h 0 %
11:00:00 clear sky 35.060 35.060 35.060 26 1.73 m/h 0 %
14:00:00 clear sky 37.840 37.840 37.840 21 0.69 m/h 0 %
17:00:00 clear sky 36.660 36.660 36.660 23 0.65 m/h 0 %
20:00:00 clear sky 30.840 30.840 30.840 38 3.19 m/h 0 %
23:00:00 clear sky 28.570 28.570 28.570 49 2.84 m/h 0 %
30-Sep-2022 (Fri)
02:00:00 clear sky 27.530 27.530 27.530 55 1.84 m/h 0 %
05:00:00 clear sky 26.330 26.330 26.330 59 1.61 m/h 0 %
08:00:00 clear sky 29.540 29.540 29.540 48 1.33 m/h 0 %
11:00:00 clear sky 35.840 35.840 35.840 24 1.61 m/h 0 %
14:00:00 clear sky 38.050 38.050 38.050 18 2.4 m/h 0 %
17:00:00 clear sky 36.860 36.860 36.860 21 1.38 m/h 0 %
20:00:00 clear sky 31.320 31.320 31.320 29 2.76 m/h 0 %
23:00:00 clear sky 28.740 28.740 28.740 42 3.24 m/h 0 %
01-Oct-2022 (Sat)
02:00:00 clear sky 27.290 27.290 27.290 41 0.56 m/h 0 %
05:00:00 clear sky 26.190 26.190 26.190 46 1.08 m/h 0 %

Famous Cities (61)